Time;durP1;ratioP1;P1;durP2;ratioP2;P2;SDS_P1;SDS_P2;PMS_P1;PMS_P2;Temp;Humidity;BMP_temperature;BMP_pressure;BME280_temperature;BME280_humidity;BME280_pressure;Samples;Min_cycle;Max_cycle;Signal;HPM_P1;HPM_P2
2021/06/04 00:01:39;;;;;;;7.32;2.53;;;14.70;99.90;;;14.21;91.94;101763.31;3951144;30;20109;-66
2021/06/04 00:03:42;;;;;;;5.15;3.40;;;14.70;99.90;;;14.20;92.13;101761.63;3950729;30;20148;-66
2021/06/04 00:05:47;;;;;;;7.95;3.08;;;14.60;99.90;;;14.01;93.03;101761.78;3950926;30;20035;-66
2021/06/04 00:07:48;;;;;;;9.35;4.35;;;14.70;99.90;;;14.14;93.43;101764.06;3950410;30;20067;-67
2021/06/04 00:09:49;;;;;;;4.45;2.85;;;14.60;99.90;;;14.04;92.92;101758.84;3950795;30;20104;-66
2021/06/04 00:11:55;;;;;;;7.93;4.28;;;14.60;99.90;;;14.14;92.44;101767.56;3951010;30;20028;-66
2021/06/04 00:14:12;;;;;;;5.43;3.10;;;14.50;99.90;;;13.85;92.59;101757.22;3950887;30;20032;-67
2021/06/04 00:16:26;;;;;;;4.95;3.10;;;14.50;99.90;;;13.67;93.72;101761.69;3950889;30;20590;-66
2021/06/04 00:18:28;;;;;;;6.43;3.47;;;14.50;99.90;;;13.82;93.75;101762.81;3950559;30;20035;-67
2021/06/04 00:20:29;;;;;;;8.48;3.15;;;14.40;99.90;;;13.79;94.79;101756.97;3950854;30;20044;-66
2021/06/04 00:22:30;;;;;;;8.80;4.15;;;14.40;99.90;;;13.88;94.71;101750.75;3950791;30;20036;-66
2021/06/04 00:24:33;;;;;;;4.55;3.03;;;14.40;99.90;;;13.86;93.83;101750.06;3950787;30;20555;-66
2021/06/04 00:26:37;;;;;;;7.18;4.20;;;14.40;99.90;;;13.73;93.92;101744.31;3950464;30;20419;-66
2021/06/04 00:28:38;;;;;;;;;;;14.40;99.90;;;13.32;93.98;101738.59;3951225;30;20034;-66
2021/06/04 00:30:40;;;;;;;6.00;2.83;;;14.30;99.90;;;13.33;94.74;101739.44;3934965;30;19914;-66
2021/06/04 00:32:41;;;;;;;6.07;3.20;;;14.20;99.90;;;13.38;96.03;101747.78;3950680;30;20393;-66
2021/06/04 00:34:42;;;;;;;3.45;2.65;;;14.20;99.90;;;13.51;95.36;101742.13;3950621;30;20076;-66
2021/06/04 00:36:45;;;;;;;7.05;3.78;;;14.20;99.90;;;13.55;95.84;101744.31;3950892;30;20027;-66
2021/06/04 00:38:46;;;;;;;4.97;3.75;;;14.20;99.90;;;13.61;95.13;101746.38;3950884;30;20086;-66
2021/06/04 00:40:55;;;;;;;7.47;3.20;;;14.20;99.90;;;13.66;95.78;101752.06;3950640;30;20573;-66
2021/06/04 00:42:57;;;;;;;6.88;3.42;;;14.20;99.90;;;13.72;95.77;101750.59;3950381;30;20028;-66
2021/06/04 00:44:59;;;;;;;5.70;3.08;;;14.10;99.90;;;13.41;95.10;101746.66;3950879;30;20055;-66
2021/06/04 00:47:01;;;;;;;9.00;3.08;;;14.10;99.90;;;13.50;95.83;101740.47;3950527;30;20559;-66
2021/06/04 00:49:02;;;;;;;7.05;3.28;;;14.10;99.90;;;13.41;95.32;101744.00;3950383;30;20032;-66
2021/06/04 00:51:15;;;;;;;4.13;2.75;;;14.10;99.90;;;13.43;95.14;101747.34;3949202;30;20128;-66
2021/06/04 00:53:20;;;;;;;5.32;3.03;;;14.10;99.90;;;13.38;95.20;101745.13;3934945;30;20512;-66
2021/06/04 00:55:24;;;;;;;6.90;2.97;;;14.10;99.90;;;13.37;95.90;101743.47;3934939;30;20032;-66
2021/06/04 00:57:27;;;;;;;8.80;3.33;;;14.00;99.90;;;13.49;95.41;101749.38;3934782;30;20090;-66
2021/06/04 00:59:37;;;;;;;9.15;3.00;;;14.00;99.90;;;13.48;95.85;101753.00;3934942;30;20043;-66
2021/06/04 01:01:41;;;;;;;7.15;3.05;;;14.10;99.90;;;13.44;95.39;101752.47;3943862;30;20039;-66
2021/06/04 01:03:48;;;;;;;;;;;14.10;99.90;;;13.41;95.78;101758.06;3950685;30;20032;-66
2021/06/04 01:05:49;;;;;;;6.60;2.60;;;14.10;99.90;;;13.32;95.39;101757.16;3950643;30;20304;-66
2021/06/04 01:08:12;;;;;;;6.90;2.80;;;14.10;99.90;;;13.30;95.38;101750.34;3934536;30;20040;-66
2021/06/04 01:10:52;;;;;;;7.03;2.63;;;14.00;99.90;;;13.37;95.84;101747.94;3950532;30;20112;-66
2021/06/04 01:13:09;;;;;;;6.82;2.70;;;14.00;99.90;;;13.19;96.01;101743.44;3950536;30;20063;-66
2021/06/04 01:15:24;;;;;;;7.13;3.13;;;14.00;99.90;;;12.95;97.38;101750.22;3950430;30;20040;-66
2021/06/04 01:17:47;;;;;;;;;;;13.90;99.90;;;12.99;96.47;101735.72;3935522;30;20036;-66
2021/06/04 01:20:06;;;;;;;4.18;2.38;;;13.90;99.90;;;12.72;96.89;101731.25;3952781;30;19966;-66
2021/06/04 01:22:37;;;;;;;5.00;2.58;;;13.80;99.90;;;12.84;96.79;101737.19;3953323;30;20031;-66
2021/06/04 01:25:24;;;;;;;5.35;2.42;;;13.80;99.90;;;12.72;97.90;101745.31;3909467;30;20052;-66
2021/06/04 01:27:36;;;;;;;4.25;2.25;;;13.70;99.90;;;12.71;99.16;101729.56;3931367;30;20169;-66
2021/06/04 01:29:48;;;;;;;4.65;2.28;;;13.60;99.90;;;12.76;98.13;101735.25;3937725;30;20040;-66
2021/06/04 01:31:56;;;;;;;5.07;2.10;;;13.60;99.90;;;12.87;98.45;101732.44;3951876;30;20040;-66
2021/06/04 01:34:09;;;;;;;4.65;2.13;;;13.60;99.90;;;12.74;98.07;101724.00;3953130;30;20039;-66
2021/06/04 01:36:15;;;;;;;7.22;2.40;;;13.60;99.90;;;12.71;98.35;101732.22;3952768;30;20197;-66
2021/06/04 01:38:21;;;;;;;7.78;2.35;;;13.50;99.90;;;12.64;98.20;101736.41;3937532;30;20044;-66
2021/06/04 01:40:36;;;;;;;7.80;2.63;;;13.50;99.90;;;12.63;97.38;101735.59;3953075;30;20405;-66
2021/06/04 01:42:43;;;;;;;5.05;2.20;;;13.50;99.90;;;12.83;97.99;101735.50;3937022;30;20028;-66
2021/06/04 01:45:03;;;;;;;4.25;2.35;;;13.50;99.90;;;12.70;96.98;101733.19;3922537;30;20043;-66
2021/06/04 01:47:13;;;;;;;5.13;2.20;;;13.50;99.90;;;12.88;96.92;101742.03;3931408;30;20444;-67
2021/06/04 01:49:24;;;;;;;8.38;2.05;;;13.50;99.90;;;12.94;97.12;101744.09;3952834;30;20043;-66
2021/06/04 01:51:47;;;;;;;4.00;1.90;;;13.50;99.90;;;12.90;96.21;101744.56;3953045;30;20043;-66
2021/06/04 01:53:56;;;;;;;4.78;2.15;;;13.60;99.90;;;12.76;97.16;101746.69;3938786;30;20036;-66
2021/06/04 01:56:08;;;;;;;3.47;2.03;;;13.50;99.90;;;12.86;97.26;101751.94;3951560;30;20133;-66
2021/06/04 01:58:36;;;;;;;4.50;2.13;;;13.50;99.90;;;12.56;97.38;101755.69;3934268;30;20097;-67
2021/06/04 02:00:55;;;;;;;5.80;1.90;;;13.50;99.90;;;12.55;97.83;101758.47;3939779;30;20036;-66
2021/06/04 02:02:58;;;;;;;5.13;2.03;;;13.50;99.90;;;12.65;98.39;101761.94;3942177;30;20032;-66
2021/06/04 02:05:00;;;;;;;4.60;2.05;;;13.50;99.90;;;12.67;98.75;101767.91;3953211;30;20458;-66
2021/06/04 02:07:07;;;;;;;5.05;1.98;;;13.50;99.90;;;12.74;97.96;101772.50;3951223;30;20032;-67
2021/06/04 02:09:14;;;;;;;3.67;2.05;;;13.50;99.90;;;12.82;98.25;101774.41;3952155;30;20399;-66
2021/06/04 02:11:19;;;;;;;3.95;2.40;;;13.50;99.90;;;12.57;98.02;101772.41;3952362;30;20031;-67
2021/06/04 02:13:22;;;;;;;3.35;2.10;;;13.50;99.90;;;12.72;97.95;101778.91;3951611;30;20497;-66
2021/06/04 02:15:31;;;;;;;2.55;1.90;;;13.40;99.90;;;12.81;98.57;101785.97;3936728;30;20093;-66
2021/06/04 02:17:41;;;;;;;6.63;2.30;;;13.40;99.90;;;12.85;96.58;101776.75;3937572;30;20032;-66
2021/06/04 02:20:22;;;;;;;4.22;1.95;;;13.50;99.90;;;12.88;95.77;101775.63;3944131;30;20043;-67
2021/06/04 02:22:32;;;;;;;3.35;1.77;;;13.60;99.90;;;12.86;95.71;101783.72;3946735;30;20118;-67
2021/06/04 02:24:53;;;;;;;4.07;1.75;;;13.60;99.90;;;12.91;96.95;101770.88;3926236;30;20028;-67
2021/06/04 02:27:15;;;;;;;3.55;2.00;;;13.50;99.90;;;12.78;96.21;101771.19;3950660;30;20055;-67
2021/06/04 02:29:32;;;;;;;5.28;2.25;;;13.60;99.90;;;12.94;95.72;101770.59;3935292;30;20107;-69
2021/06/04 02:31:52;;;;;;;4.00;1.92;;;13.50;99.90;;;12.98;95.32;101771.13;3947670;30;20063;-67
2021/06/04 02:34:12;;;;;;;4.68;1.70;;;13.60;99.90;;;13.01;95.71;101776.13;3936494;30;20487;-67
2021/06/04 02:36:23;;;;;;;2.60;1.80;;;13.60;99.90;;;12.82;94.76;101771.75;3951273;30;20726;-67
2021/06/04 02:38:38;;;;;;;1.50;1.17;;;13.60;99.90;;;12.93;95.25;101763.59;3935723;30;20036;-67
2021/06/04 02:40:47;;;;;;;4.45;1.52;;;13.60;99.90;;;13.11;96.09;101779.63;3929959;30;20043;-68
2021/06/04 02:43:00;;;;;;;5.82;2.10;;;13.60;99.90;;;12.98;94.27;101777.25;3935538;30;20531;-68
2021/06/04 02:45:27;;;;;;;3.05;1.58;;;13.70;99.90;;;13.06;94.55;101765.94;3936065;30;20036;-68
2021/06/04 02:47:49;;;;;;;4.10;1.50;;;13.70;99.90;;;13.09;93.87;101760.38;3950960;30;20116;-67
2021/06/04 02:49:50;;;;;;;5.53;1.45;;;13.70;99.90;;;13.00;93.55;101754.09;3933741;30;20081;-67
2021/06/04 02:52:25;;;;;;;2.55;1.70;;;13.70;99.90;;;13.10;94.38;101762.88;3934715;30;20408;-67
2021/06/04 02:54:33;;;;;;;5.00;1.60;;;13.70;99.90;;;13.13;95.27;101757.28;3940847;30;20051;-67
2021/06/04 02:56:54;;;;;;;5.03;2.03;;;13.70;99.90;;;12.98;94.33;101745.47;3929952;30;20552;-67
2021/06/04 02:59:08;;;;;;;4.93;1.48;;;13.70;99.90;;;12.85;94.79;101749.44;3951509;30;20044;-67
2021/06/04 03:01:12;;;;;;;3.35;1.40;;;13.70;99.90;;;12.82;94.42;101747.91;3937180;30;20093;-67
2021/06/04 03:03:13;;;;;;;3.75;1.70;;;13.70;99.90;;;12.81;94.86;101751.56;3943391;30;20036;-67
2021/06/04 03:05:24;;;;;;;6.13;1.58;;;13.60;99.90;;;12.86;95.51;101754.59;3947483;30;20032;-67
2021/06/04 03:07:35;;;;;;;3.08;1.52;;;13.60;99.90;;;12.73;95.27;101756.72;3944494;30;20495;-67
2021/06/04 03:09:41;;;;;;;3.05;1.58;;;13.50;99.90;;;12.72;95.30;101749.78;3951296;30;20024;-67
2021/06/04 03:11:44;;;;;;;7.55;2.08;;;13.50;99.90;;;12.80;95.24;101751.69;3943422;30;20495;-67
2021/06/04 03:13:46;;;;;;;4.65;1.90;;;13.50;99.90;;;12.72;94.28;101761.19;3949610;30;20028;-67
2021/06/04 03:15:53;;;;;;;5.63;1.85;;;13.50;99.90;;;12.67;95.54;101758.16;3936464;30;20096;-66
2021/06/04 03:17:55;;;;;;;4.05;1.50;;;13.50;99.90;;;12.80;96.00;101768.41;3946777;30;20043;-66
2021/06/04 03:19:57;;;;;;;5.80;1.85;;;13.50;99.90;;;12.78;96.38;101765.91;3951103;30;20109;-66
2021/06/04 03:22:12;;;;;;;6.25;2.10;;;13.50;99.90;;;12.91;96.51;101765.56;3950836;30;20028;-67
2021/06/04 03:24:17;;;;;;;5.85;1.63;;;13.50;99.90;;;12.90;94.53;101769.22;3951197;30;20566;-67
2021/06/04 03:26:23;;;;;;;5.00;1.70;;;13.50;99.90;;;12.92;94.86;101774.38;3940272;30;20408;-67
2021/06/04 03:28:26;;;;;;;5.38;1.60;;;13.50;99.90;;;12.98;94.14;101771.13;3947632;30;20097;-67
2021/06/04 03:30:32;;;;;;;5.57;2.22;;;13.50;99.90;;;12.76;95.04;101762.56;3936417;30;20032;-67
2021/06/04 03:32:34;;;;;;;4.25;2.30;;;13.60;99.90;;;12.64;93.91;101762.91;3949947;30;20077;-66
2021/06/04 03:34:37;;;;;;;5.22;2.00;;;13.60;99.90;;;12.72;94.72;101755.88;3950599;30;20032;-67
2021/06/04 03:36:41;;;;;;;5.22;1.77;;;13.50;99.90;;;12.57;94.96;101756.53;3950806;30;20040;-67
2021/06/04 03:38:44;;;;;;;4.25;2.00;;;13.50;99.90;;;12.45;95.65;101757.66;3951081;30;20042;-66
2021/06/04 03:40:46;;;;;;;4.47;2.28;;;13.50;99.90;;;12.35;96.04;101751.56;3941807;30;20067;-66
2021/06/04 03:42:48;;;;;;;3.40;1.50;;;13.40;99.90;;;12.54;95.93;101762.09;3949987;30;20115;-66
2021/06/04 03:44:49;;;;;;;4.13;1.42;;;13.30;99.90;;;12.64;96.00;101768.19;3932220;30;20044;-66
2021/06/04 03:46:50;;;;;;;4.53;2.10;;;13.30;99.90;;;12.54;96.60;101759.47;3945330;30;20028;-66
2021/06/04 03:48:51;;;;;;;5.05;1.88;;;13.30;99.90;;;12.63;96.00;101762.06;3944994;30;20036;-67
2021/06/04 03:50:57;;;;;;;3.33;1.75;;;13.30;99.90;;;12.61;95.01;101766.66;3946917;30;20047;-67
2021/06/04 03:52:58;;;;;;;3.42;1.73;;;13.30;99.90;;;12.67;95.70;101760.78;3950694;30;20032;-66
2021/06/04 03:54:59;;;;;;;5.70;1.90;;;13.30;99.90;;;12.59;95.32;101771.28;3948435;30;20062;-67
2021/06/04 03:57:03;;;;;;;4.45;1.77;;;13.40;99.90;;;12.64;94.26;101773.47;3950686;30;20035;-67
2021/06/04 03:59:05;;;;;;;5.15;1.70;;;13.40;99.90;;;12.66;94.37;101769.72;3939027;30;20487;-66
2021/06/04 04:01:21;;;;;;;7.15;1.70;;;13.40;99.90;;;12.63;94.04;101787.72;3951019;30;20404;-66
2021/06/04 04:03:25;;;;;;;5.95;2.42;;;13.40;99.90;;;12.44;95.06;101778.00;3935672;30;20032;-66
2021/06/04 04:05:26;;;;;;;3.03;1.70;;;13.40;99.90;;;12.27;95.86;101762.03;3951000;30;20409;-66
2021/06/04 04:07:30;;;;;;;3.70;1.77;;;13.40;99.90;;;12.47;95.94;101776.88;3935165;30;20067;-66
2021/06/04 04:09:31;;;;;;;4.57;1.63;;;13.40;99.90;;;12.63;94.95;101788.53;3951090;30;20039;-66
2021/06/04 04:11:32;;;;;;;10.18;2.08;;;13.30;99.90;;;12.62;94.78;101788.69;3950758;30;20051;-66
2021/06/04 04:13:34;;;;;;;4.78;1.60;;;13.30;99.90;;;12.76;95.54;101782.91;3950826;30;20151;-68
2021/06/04 04:15:35;;;;;;;3.10;2.13;;;13.40;99.90;;;12.72;93.49;101786.84;3951029;30;20038;-67
2021/06/04 04:17:36;;;;;;;4.70;1.77;;;13.40;99.90;;;12.77;94.52;101787.25;3950800;30;20046;-66
2021/06/04 04:19:37;;;;;;;7.55;1.48;;;13.40;99.90;;;12.77;95.00;101787.25;3950832;30;20032;-67
2021/06/04 04:21:38;;;;;;;7.60;1.55;;;13.40;99.90;;;12.85;93.17;101786.50;3950854;30;20533;-66
2021/06/04 04:23:48;;;;;;;5.78;1.88;;;13.40;99.90;;;12.64;93.87;101784.91;3950817;30;20051;-66
2021/06/04 04:25:49;;;;;;;6.10;1.98;;;13.50;99.90;;;12.71;93.83;101779.88;3950724;30;20032;-66
2021/06/04 04:27:51;;;;;;;3.75;1.42;;;13.40;99.90;;;12.88;94.58;101781.75;3950756;30;20500;-66
2021/06/04 04:29:52;;;;;;;4.10;2.17;;;13.50;99.90;;;12.89;92.09;101787.91;3950569;30;20123;-66
2021/06/04 04:31:59;;;;;;;4.95;1.70;;;13.60;99.90;;;12.87;92.48;101784.56;3949559;30;20478;-66
2021/06/04 04:34:00;;;;;;;8.85;2.05;;;13.60;99.90;;;13.00;92.93;101796.47;3950854;30;20036;-66
2021/06/04 04:36:06;;;;;;;5.13;1.55;;;13.60;99.90;;;12.72;91.89;101787.66;3950396;30;20516;-66
2021/06/04 04:38:09;;;;;;;2.97;1.95;;;13.50;99.90;;;12.57;92.78;101793.59;3950731;30;20116;-66
2021/06/04 04:40:12;;;;;;;3.25;1.50;;;13.50;99.90;;;12.40;92.95;101787.19;3950727;30;20043;-67
2021/06/04 04:42:19;;;;;;;5.72;1.50;;;13.40;99.90;;;12.56;92.66;101786.59;3950652;30;20032;-66
2021/06/04 04:44:28;;;;;;;3.78;1.92;;;13.40;99.90;;;12.60;91.82;101786.16;3950574;30;20123;-66
2021/06/04 04:46:30;;;;;;;3.60;1.75;;;13.40;99.90;;;12.60;91.90;101788.00;3950680;30;20075;-66
2021/06/04 04:48:32;;;;;;;4.25;1.75;;;13.40;99.90;;;12.63;92.74;101788.53;3950501;30;20109;-67
2021/06/04 04:50:36;;;;;;;4.03;1.13;;;13.40;99.90;;;12.52;91.92;101787.84;3950629;30;20031;-66
2021/06/04 04:52:37;;;;;;;4.50;1.30;;;13.40;99.90;;;12.50;91.88;101787.19;3950540;30;20495;-66
2021/06/04 04:54:49;;;;;;;5.65;1.20;;;13.40;99.90;;;12.49;92.24;101778.41;3953163;30;20032;-66
2021/06/04 04:56:50;;;;;;;4.03;1.30;;;13.40;99.90;;;12.38;92.84;101783.03;3953577;30;20039;-66
2021/06/04 04:58:52;;;;;;;5.93;1.60;;;13.40;99.90;;;12.61;92.49;101787.00;3953790;30;20464;-67
2021/06/04 05:00:55;;;;;;;4.28;1.65;;;13.30;99.90;;;12.66;91.53;101788.22;3953448;30;20111;-67
2021/06/04 05:02:59;;;;;;;3.70;1.25;;;13.40;99.90;;;12.69;92.16;101795.88;3953544;30;20101;-66
2021/06/04 05:04:59;;;;;;;6.32;1.95;;;13.50;99.90;;;12.68;90.87;101790.75;3953651;30;20036;-66
2021/06/04 05:07:00;;;;;;;5.32;1.50;;;13.50;99.90;;;12.70;91.15;101799.38;3953526;30;20117;-67
2021/06/04 05:09:05;;;;;;;6.40;1.52;;;13.50;99.90;;;12.69;91.65;101810.97;3953288;30;20039;-66
2021/06/04 05:11:07;;;;;;;2.80;1.25;;;13.50;99.90;;;12.70;90.82;101804.66;3953543;30;20381;-66
2021/06/04 05:13:08;;;;;;;3.30;2.08;;;13.60;99.90;;;12.60;92.04;101795.94;3953677;30;20054;-66
2021/06/04 05:15:14;;;;;;;5.50;1.60;;;13.60;99.90;;;12.81;91.08;101815.13;3953415;30;20035;-66
2021/06/04 05:17:15;;;;;;;3.85;1.40;;;13.60;99.90;;;12.93;90.53;101821.06;3951677;30;20031;-66
2021/06/04 05:19:16;;;;;;;2.97;1.20;;;13.60;99.90;;;13.02;90.70;101809.59;3952859;30;20035;-66
2021/06/04 05:21:19;;;;;;;6.35;2.00;;;13.70;99.90;;;13.14;90.16;101819.06;3953195;30;20040;-66
2021/06/04 05:23:21;;;;;;;7.97;1.50;;;13.70;99.90;;;13.03;89.42;101820.03;3953239;30;20096;-66
2021/06/04 05:25:28;;;;;;;5.18;1.50;;;13.80;99.90;;;13.12;90.08;101823.66;3952892;30;20035;-66
2021/06/04 05:27:29;;;;;;;4.57;1.75;;;13.80;99.90;;;13.25;90.32;101842.72;3953126;30;20036;-67
2021/06/04 05:29:30;;;;;;;7.43;1.30;;;13.80;99.90;;;13.19;88.59;101838.84;3953258;30;20393;-66
2021/06/04 05:31:31;;;;;;;5.20;1.42;;;13.90;99.90;;;13.12;89.17;101826.31;3953026;30;20458;-66
2021/06/04 05:33:37;;;;;;;3.13;1.40;;;13.90;99.90;;;13.28;90.74;101840.59;3952876;30;20496;-66
2021/06/04 05:35:39;;;;;;;7.25;1.33;;;14.00;99.90;;;13.19;89.05;101833.53;3952908;30;20108;-66
2021/06/04 05:37:40;;;;;;;3.78;1.83;;;13.90;99.90;;;13.22;89.05;101832.41;3952971;30;20412;-66
2021/06/04 05:39:41;;;;;;;3.92;1.88;;;13.90;99.90;;;13.37;88.49;101843.34;3952833;30;20052;-66
2021/06/04 05:41:46;;;;;;;3.90;1.70;;;14.00;99.90;;;13.06;90.73;101838.28;3953169;30;20032;-66
2021/06/04 05:43:48;;;;;;;10.32;2.10;;;13.90;99.90;;;13.22;91.91;101838.53;3952881;30;20040;-66
2021/06/04 05:45:50;;;;;;;5.53;2.42;;;13.90;99.90;;;13.35;90.14;101840.81;3952763;30;20114;-66
2021/06/04 05:47:53;;;;;;;3.92;1.75;;;14.00;99.90;;;13.14;90.26;101825.16;3952679;30;20497;-67
2021/06/04 05:49:54;;;;;;;5.72;1.60;;;14.00;99.90;;;13.07;90.67;101837.31;3937058;30;20070;-66
2021/06/04 05:51:57;;;;;;;5.20;1.33;;;13.90;99.90;;;12.98;90.12;101837.34;3952748;30;20036;-67
2021/06/04 05:53:59;;;;;;;4.63;2.20;;;13.90;99.90;;;12.74;89.90;101832.53;3952915;30;20057;-66
2021/06/04 05:56:01;;;;;;;4.63;1.90;;;13.90;99.90;;;12.96;90.51;101829.53;3936778;30;20340;-66
2021/06/04 05:58:07;;;;;;;7.40;2.22;;;13.80;99.90;;;12.76;90.82;101833.22;3952792;30;20028;-67
2021/06/04 06:00:20;;;;;;;6.18;1.92;;;13.80;99.90;;;12.79;90.37;101814.41;3952604;30;20081;-67
2021/06/04 06:02:21;;;;;;;6.35;1.70;;;13.80;99.90;;;12.93;90.22;101824.53;3952517;30;20036;-66
2021/06/04 06:04:22;;;;;;;7.07;1.52;;;13.80;99.90;;;13.20;89.80;101845.78;3952652;30;20075;-67
2021/06/04 06:06:24;;;;;;;5.93;1.75;;;13.90;99.90;;;13.28;88.93;101839.75;3951704;30;20484;-67
2021/06/04 06:08:26;;;;;;;8.07;1.75;;;14.00;99.90;;;13.00;88.48;101838.88;3952599;30;20454;-67
2021/06/04 06:10:27;;;;;;;8.25;1.42;;;14.10;99.90;;;12.91;87.74;101844.19;3952520;30;20054;-66
2021/06/04 06:12:28;;;;;;;4.57;1.00;;;14.10;99.90;;;13.07;87.89;101849.72;3952613;30;20036;-66
2021/06/04 06:14:29;;;;;;;3.72;1.38;;;14.10;99.90;;;13.24;85.74;101852.47;3952583;30;20100;-66
2021/06/04 06:16:31;;;;;;;4.97;1.40;;;14.20;99.90;;;13.37;85.48;101846.84;3952316;30;20032;-66
2021/06/04 06:18:33;;;;;;;3.33;1.17;;;14.20;99.90;;;13.33;83.57;101848.09;3952183;30;20063;-66
2021/06/04 06:20:38;;;;;;;3.80;1.75;;;14.30;99.90;;;13.18;83.08;101846.91;3952372;30;20036;-66
2021/06/04 06:22:40;;;;;;;4.35;1.00;;;14.20;99.90;;;13.26;83.11;101847.84;3952539;30;20031;-66
2021/06/04 06:24:41;;;;;;;3.08;1.10;;;14.20;99.90;;;13.31;81.47;101855.38;3952607;30;20036;-68
2021/06/04 06:26:45;;;;;;;3.53;1.15;;;14.20;99.90;;;13.36;80.79;101860.22;3952300;30;20511;-67
2021/06/04 06:28:46;;;;;;;4.22;1.20;;;14.20;99.90;;;13.14;82.29;101864.09;3952182;30;20658;-67
2021/06/04 06:30:48;;;;;;;2.35;1.00;;;14.20;99.90;;;13.34;83.62;101862.19;3952287;30;20083;-67
2021/06/04 06:32:49;;;;;;;4.05;1.38;;;14.30;99.90;;;13.50;83.38;101873.00;3952392;30;20046;-67
2021/06/04 06:34:50;;;;;;;3.55;1.33;;;14.30;99.90;;;13.41;82.93;101879.19;3951904;30;20520;-67
2021/06/04 06:36:51;;;;;;;5.15;1.20;;;14.40;99.90;;;13.61;82.05;101886.06;3952147;30;20042;-68
2021/06/04 06:38:54;;;;;;;2.50;1.10;;;14.40;99.90;;;13.70;83.00;101885.16;3952361;30;20038;-67
2021/06/04 06:40:58;;;;;;;4.75;1.20;;;14.50;99.90;;;13.71;82.97;101884.16;3952126;30;20038;-68
2021/06/04 06:42:59;;;;;;;3.00;1.25;;;14.50;99.90;;;13.64;82.38;101888.41;3952100;30;20043;-67
2021/06/04 06:45:00;;;;;;;3.50;1.85;;;14.60;99.90;;;13.82;83.66;101887.47;3952382;30;20047;-67
2021/06/04 06:47:02;;;;;;;6.35;1.73;;;14.50;99.90;;;13.85;82.80;101868.59;3952024;30;20078;-68
2021/06/04 06:49:03;;;;;;;5.28;1.60;;;14.60;99.90;;;13.96;82.64;101872.00;3952211;30;20031;-67
2021/06/04 06:51:06;;;;;;;9.73;1.70;;;14.70;99.90;;;13.91;83.34;101866.31;3951929;30;20446;-67
2021/06/04 06:53:11;;;;;;;6.82;1.75;;;14.70;99.90;;;14.00;84.48;101878.69;3945062;30;20032;-68
2021/06/04 06:55:12;;;;;;;4.82;2.58;;;14.80;99.90;;;14.03;84.66;101875.75;3951860;30;20065;-68
2021/06/04 06:57:13;;;;;;;4.25;2.25;;;14.90;99.90;;;14.00;84.89;101878.69;3936171;30;20036;-68
2021/06/04 06:59:14;;;;;;;6.53;2.53;;;14.90;99.90;;;13.91;86.06;101877.78;3951798;30;20062;-68
2021/06/04 07:01:16;;;;;;;5.20;1.88;;;14.90;99.90;;;14.13;86.23;101882.63;3951887;30;20035;-68
2021/06/04 07:03:27;;;;;;;7.20;1.90;;;14.90;99.90;;;14.33;86.34;101884.19;3951843;30;20032;-67
2021/06/04 07:05:30;;;;;;;7.70;2.45;;;15.00;99.90;;;14.45;85.95;101878.66;3951900;30;20043;-68
2021/06/04 07:07:31;;;;;;;4.18;1.92;;;15.20;99.90;;;14.47;86.42;101881.97;3951926;30;20396;-68
2021/06/04 07:09:32;;;;;;;4.45;2.05;;;15.30;99.90;;;14.39;86.37;101885.41;3951844;30;20028;-68
2021/06/04 07:11:40;;;;;;;7.13;2.83;;;15.30;99.90;;;14.12;87.82;101898.72;3951862;30;20031;-67
2021/06/04 07:13:41;;;;;;;4.57;2.55;;;15.40;99.90;;;14.14;88.81;101899.38;3951616;30;20473;-68
2021/06/04 07:15:43;;;;;;;11.35;2.53;;;15.40;99.90;;;14.12;87.98;101911.97;3951851;30;20456;-67
2021/06/04 07:17:44;;;;;;;7.60;2.63;;;15.30;99.90;;;14.46;86.36;101909.50;3951491;30;20244;-67
2021/06/04 07:19:46;;;;;;;7.65;2.80;;;15.40;99.90;;;14.27;87.87;101913.97;3951821;30;20499;-67
2021/06/04 07:21:47;;;;;;;5.30;2.22;;;15.50;99.90;;;14.55;85.49;101917.38;3951606;30;20370;-67
2021/06/04 07:23:49;;;;;;;8.95;2.55;;;15.60;99.90;;;14.59;84.99;101909.94;3952091;30;20043;-68
2021/06/04 07:25:50;;;;;;;7.65;2.50;;;15.70;99.90;;;14.38;85.51;101910.28;3951658;30;20027;-68
2021/06/04 07:27:51;;;;;;;3.70;2.13;;;15.70;99.90;;;14.56;85.79;101907.59;3935537;30;20041;-68
2021/06/04 07:29:53;;;;;;;5.63;2.22;;;15.70;99.90;;;14.39;85.50;101912.75;3951520;30;20039;-67
2021/06/04 07:31:55;;;;;;;6.70;3.10;;;15.60;99.90;;;14.36;86.42;101914.91;3951483;30;20059;-68
2021/06/04 07:33:57;;;;;;;10.27;4.18;;;15.60;99.90;;;14.56;85.15;101912.91;3951458;30;20032;-67
2021/06/04 07:36:03;;;;;;;5.30;2.50;;;15.60;99.90;;;14.54;85.91;101909.59;3951178;30;20509;-68
2021/06/04 07:38:06;;;;;;;4.68;2.28;;;15.70;99.90;;;14.64;85.36;101911.16;3951344;30;20067;-68
2021/06/04 07:40:11;;;;;;;8.93;2.60;;;15.70;99.90;;;14.46;85.63;101910.34;3951289;30;20061;-68
2021/06/04 07:42:14;;;;;;;5.88;3.13;;;15.70;99.90;;;14.40;84.91;101925.06;3951248;30;20034;-68
2021/06/04 07:44:15;;;;;;;8.63;3.17;;;15.70;99.90;;;14.18;86.52;101919.34;3951215;30;20042;-68
2021/06/04 07:46:21;;;;;;;10.73;2.90;;;15.60;99.90;;;14.48;85.80;101923.47;3951214;30;20039;-68
2021/06/04 07:48:22;;;;;;;7.18;4.22;;;15.60;99.90;;;14.70;84.26;101909.69;3950945;30;20434;-67
2021/06/04 07:50:23;;;;;;;7.47;3.22;;;15.70;99.90;;;14.97;84.02;101922.84;3950982;30;20032;-68
2021/06/04 07:52:26;;;;;;;4.68;2.40;;;15.80;99.90;;;15.07;83.74;101920.94;3951137;30;20385;-68
2021/06/04 07:54:31;;;;;;;9.52;2.88;;;16.00;99.90;;;15.22;81.91;101913.22;3951031;30;20040;-68
2021/06/04 07:56:32;;;;;;;7.07;3.00;;;16.20;99.90;;;15.46;81.48;101924.00;3935365;30;20038;-68
2021/06/04 07:58:33;;;;;;;6.03;3.08;;;16.50;99.90;;;15.54;81.05;101925.88;3935280;30;20036;-67
2021/06/04 08:00:37;;;;;;;7.28;3.10;;;16.70;99.90;;;15.24;80.42;101922.69;3950951;30;20128;-68
2021/06/04 08:02:38;;;;;;;9.27;2.50;;;16.90;99.90;;;15.79;78.58;101936.47;3950838;30;20297;-68
2021/06/04 08:04:39;;;;;;;7.85;2.70;;;17.10;99.90;;;15.45;79.71;101938.25;3951047;30;20560;-68
2021/06/04 08:06:41;;;;;;;6.07;2.58;;;17.30;99.90;;;15.67;77.61;101937.75;3951350;30;20488;-68
2021/06/04 08:08:43;;;;;;;8.73;2.80;;;17.40;99.90;;;15.76;75.52;101944.78;3950805;30;20031;-68
2021/06/04 08:10:44;;;;;;;5.53;2.88;;;17.50;99.90;;;15.78;76.34;101941.94;3951055;30;20054;-68
2021/06/04 08:12:46;;;;;;;5.60;2.35;;;17.40;99.90;;;15.84;76.28;101946.63;3950805;30;20496;-68
2021/06/04 08:14:47;;;;;;;6.97;2.17;;;17.40;99.90;;;15.91;77.24;101948.50;3950994;30;20567;-67
2021/06/04 08:16:48;;;;;;;6.93;2.17;;;17.30;99.90;;;15.40;76.44;101949.38;3950532;30;20127;-68
2021/06/04 08:18:50;;;;;;;8.10;2.47;;;17.20;99.90;;;15.61;77.83;101959.66;3951062;30;20585;-68
2021/06/04 08:20:51;;;;;;;5.50;2.20;;;17.10;99.90;;;15.14;80.80;101966.34;3950867;30;20039;-67
2021/06/04 08:22:58;;;;;;;4.15;1.80;;;16.80;99.90;;;15.40;79.44;101954.72;3951045;30;20035;-68
2021/06/04 08:24:58;;;;;;;7.53;2.25;;;16.70;99.90;;;15.24;78.90;101957.25;3950680;30;20040;-68
2021/06/04 08:27:02;;;;;;;5.45;1.95;;;16.50;99.90;;;15.29;78.07;101946.16;3950542;30;20037;-68
2021/06/04 08:29:07;;;;;;;5.28;2.20;;;16.50;99.90;;;15.36;78.88;101957.81;3950243;30;20035;-68
2021/06/04 08:31:09;;;;;;;6.70;2.38;;;16.40;99.90;;;15.56;77.26;101953.16;3950805;30;20208;-68
2021/06/04 08:33:10;;;;;;;4.47;2.67;;;16.50;99.90;;;15.06;76.88;101955.63;3950563;30;20412;-67
2021/06/04 08:35:13;;;;;;;4.20;1.65;;;16.50;99.90;;;15.22;78.90;101959.25;3950532;30;20113;-68
2021/06/04 08:37:14;;;;;;;4.60;1.80;;;16.50;99.90;;;15.28;76.75;101955.97;3950715;30;20101;-68
2021/06/04 08:39:21;;;;;;;3.70;1.52;;;16.50;99.90;;;15.42;77.07;101966.00;3950715;30;20485;-68
2021/06/04 08:42:17;;;;;;;5.60;2.65;;;16.60;99.90;;;15.10;78.12;101968.47;3950347;30;20493;-68
2021/06/04 08:45:10;;;;;;;4.03;1.98;;;16.60;99.90;;;15.20;77.82;101976.34;3937466;30;20032;-67